createdAt,value
2022-12-01T00:00:09.932Z,56.82
2022-12-01T00:02:14.250Z,56.62
2022-12-01T00:04:15.886Z,56.94
2022-12-01T00:06:21.077Z,56.95
2022-12-01T00:08:23.119Z,56.83
2022-12-01T00:10:28.765Z,56.82
2022-12-01T00:12:31.410Z,56.91
2022-12-01T00:14:32.966Z,57.06
2022-12-01T00:16:34.779Z,56.57
2022-12-01T00:18:36.374Z,56.89
2022-12-01T00:20:38.350Z,56.91
2022-12-01T00:22:45.195Z,57.20
2022-12-01T00:24:46.864Z,56.94
2022-12-01T00:26:48.623Z,56.64
2022-12-01T00:28:51.873Z,56.54
2022-12-01T00:30:53.318Z,56.45
2022-12-01T00:32:54.919Z,57.27
2022-12-01T00:34:56.595Z,56.64
2022-12-01T00:36:58.227Z,56.80
2022-12-01T00:38:59.972Z,56.72
2022-12-01T00:41:01.826Z,56.92
2022-12-01T00:43:03.381Z,56.78
2022-12-01T00:45:05.963Z,56.70
2022-12-01T00:47:08.086Z,56.89
2022-12-01T00:49:12.748Z,56.60
2022-12-01T00:51:14.282Z,56.93
2022-12-01T00:53:16.077Z,56.79
2022-12-01T00:55:21.143Z,56.57
2022-12-01T00:57:22.836Z,56.75
2022-12-01T00:59:24.769Z,56.62
2022-12-01T01:01:26.584Z,56.78
2022-12-01T01:03:30.035Z,57.04
2022-12-01T01:05:36.000Z,56.74
2022-12-01T01:07:37.623Z,56.90
2022-12-01T01:09:39.298Z,57.02
2022-12-01T01:11:41.985Z,56.81
2022-12-01T01:13:45.043Z,56.90
2022-12-01T01:15:58.339Z,56.89
2022-12-01T01:18:00.974Z,56.73
2022-12-01T01:20:04.637Z,56.78
2022-12-01T01:22:06.820Z,56.96
2022-12-01T01:24:08.507Z,56.83
2022-12-01T01:26:23.315Z,57.08
2022-12-01T01:28:24.904Z,56.91
2022-12-01T01:30:27.252Z,56.79
2022-12-01T01:32:28.932Z,57.19
2022-12-01T01:34:33.661Z,56.88
2022-12-01T01:36:35.130Z,56.77
2022-12-01T01:38:37.292Z,56.93
2022-12-01T01:40:49.134Z,56.70
2022-12-01T01:42:50.801Z,56.86
2022-12-01T01:44:55.583Z,56.68
2022-12-01T01:46:57.124Z,56.75
2022-12-01T01:49:14.766Z,56.37
2022-12-01T01:51:20.823Z,56.92
2022-12-01T01:53:24.959Z,56.68
2022-12-01T01:55:28.720Z,56.75
2022-12-01T01:57:33.120Z,56.88
2022-12-01T01:59:45.822Z,56.75
2022-12-01T02:01:52.026Z,56.91
2022-12-01T02:03:56.270Z,56.66
2022-12-01T02:06:03.444Z,56.61
2022-12-01T02:08:12.304Z,56.96
2022-12-01T02:10:15.333Z,56.75
2022-12-01T02:12:31.346Z,56.92
2022-12-01T02:14:50.071Z,56.73
2022-12-01T02:17:05.834Z,56.63
2022-12-01T02:19:49.834Z,57.06
2022-12-01T02:22:04.856Z,56.91
2022-12-01T02:24:52.284Z,56.94
2022-12-01T02:27:04.837Z,57.14
2022-12-01T02:29:37.347Z,56.83
2022-12-01T02:31:56.862Z,56.83
2022-12-01T02:34:09.781Z,56.88
2022-12-01T02:36:19.981Z,56.87
2022-12-01T02:38:30.829Z,56.77
2022-12-01T02:40:47.026Z,56.69
2022-12-01T02:43:05.558Z,56.77
2022-12-01T02:45:14.015Z,56.90
2022-12-01T02:47:18.094Z,57.18
2022-12-01T02:49:26.235Z,56.81
2022-12-01T02:51:34.198Z,56.78
2022-12-01T02:53:36.133Z,56.85
2022-12-01T02:55:47.106Z,56.74
2022-12-01T02:57:48.677Z,57.05
2022-12-01T02:59:55.221Z,56.91
2022-12-01T03:02:15.894Z,56.92
2022-12-01T03:04:33.933Z,56.64
2022-12-01T03:06:38.701Z,56.83
2022-12-01T03:08:52.964Z,56.54
2022-12-01T03:10:58.229Z,56.93
2022-12-01T03:13:22.013Z,56.85
2022-12-01T03:15:36.039Z,56.81
2022-12-01T03:18:16.544Z,56.83
2022-12-01T03:20:29.355Z,56.62
2022-12-01T03:22:43.807Z,56.47
2022-12-01T03:24:48.362Z,56.81
2022-12-01T03:27:01.499Z,56.82
2022-12-01T03:29:10.410Z,56.82
2022-12-01T03:31:18.161Z,56.82
2022-12-01T03:33:28.666Z,56.56
2022-12-01T03:35:38.915Z,56.63
2022-12-01T03:37:43.942Z,56.65
2022-12-01T03:39:48.644Z,56.87
2022-12-01T03:41:59.882Z,56.63
2022-12-01T03:44:12.470Z,56.86
2022-12-01T03:46:33.039Z,56.80
2022-12-01T03:48:35.232Z,56.74
2022-12-01T03:50:51.743Z,56.76
2022-12-01T03:53:08.717Z,56.74
2022-12-01T03:55:19.782Z,56.61
2022-12-01T03:57:27.414Z,56.79
2022-12-01T03:59:30.633Z,56.79
2022-12-01T04:01:36.810Z,56.81
2022-12-01T04:03:38.802Z,56.91
2022-12-01T04:05:40.449Z,57.14
2022-12-01T04:07:42.115Z,56.67
2022-12-01T04:09:43.861Z,56.66
2022-12-01T04:12:04.082Z,56.71
2022-12-01T04:14:09.838Z,56.72
2022-12-01T04:16:12.531Z,56.74
2022-12-01T04:18:14.550Z,56.68
2022-12-01T04:20:17.814Z,56.80
2022-12-01T04:22:19.801Z,56.67
2022-12-01T04:24:21.324Z,56.94
2022-12-01T04:26:23.072Z,56.89
2022-12-01T04:28:24.797Z,56.95
2022-12-01T04:30:26.885Z,56.67
2022-12-01T04:32:28.573Z,56.79
2022-12-01T04:34:30.347Z,56.59
2022-12-01T04:36:33.975Z,56.82
2022-12-01T04:38:37.173Z,56.72
2022-12-01T04:40:39.030Z,56.64
2022-12-01T04:42:40.673Z,56.58
2022-12-01T04:44:42.344Z,56.95
2022-12-01T04:46:45.510Z,56.66
2022-12-01T04:48:47.259Z,57.05
2022-12-01T04:50:49.394Z,56.81
2022-12-01T04:52:54.226Z,56.92
2022-12-01T04:54:55.851Z,57.14
2022-12-01T04:56:57.527Z,57.02
2022-12-01T04:58:59.817Z,56.68
2022-12-01T05:01:12.565Z,56.58
2022-12-01T05:03:15.278Z,56.29
2022-12-01T05:05:17.290Z,56.62
2022-12-01T05:07:19.308Z,56.86
2022-12-01T05:09:21.436Z,56.85
2022-12-01T05:11:24.325Z,56.49
2022-12-01T05:13:26.423Z,56.65
2022-12-01T05:15:28.230Z,56.74
2022-12-01T05:17:36.737Z,56.86
2022-12-01T05:19:57.310Z,56.86
2022-12-01T05:21:59.018Z,56.71
2022-12-01T05:24:00.790Z,56.73
2022-12-01T05:26:03.806Z,56.62
2022-12-01T05:28:06.581Z,56.71
2022-12-01T05:30:08.616Z,56.76
2022-12-01T05:32:10.398Z,56.93
2022-12-01T05:34:11.975Z,57.05
2022-12-01T05:36:13.665Z,56.68
2022-12-01T05:38:15.671Z,56.89
2022-12-01T05:40:17.663Z,56.92
2022-12-01T05:42:19.274Z,56.79
2022-12-01T05:44:21.020Z,57.06
2022-12-01T05:46:23.439Z,56.71
2022-12-01T05:48:25.423Z,56.88
2022-12-01T05:50:28.857Z,56.54
2022-12-01T05:52:30.498Z,56.87
2022-12-01T05:54:32.066Z,56.80
2022-12-01T05:56:33.775Z,56.66
2022-12-01T05:58:35.963Z,56.60
2022-12-01T06:00:45.261Z,56.79
2022-12-01T06:02:47.928Z,56.56
2022-12-01T06:04:49.539Z,56.74
2022-12-01T06:06:51.547Z,56.65
2022-12-01T06:08:53.529Z,56.63
2022-12-01T06:10:55.245Z,56.85
2022-12-01T06:12:57.136Z,56.63
2022-12-01T06:14:58.922Z,56.57
2022-12-01T06:17:00.885Z,56.63
2022-12-01T06:19:02.614Z,56.82
2022-12-01T06:21:06.333Z,56.57
2022-12-01T06:23:08.041Z,56.52
2022-12-01T06:25:12.647Z,56.66
2022-12-01T06:27:14.482Z,56.54
2022-12-01T06:29:16.244Z,56.86
2022-12-01T06:31:17.860Z,56.25
2022-12-01T06:33:19.814Z,56.54
2022-12-01T06:35:21.496Z,56.52
2022-12-01T06:37:23.513Z,56.49
2022-12-01T06:39:25.177Z,56.58
2022-12-01T06:41:27.143Z,56.52
2022-12-01T06:43:29.095Z,56.54
2022-12-01T06:45:31.399Z,56.66
2022-12-01T06:47:33.143Z,56.62
2022-12-01T06:49:35.012Z,56.74
2022-12-01T06:51:36.774Z,56.68
2022-12-01T06:53:38.872Z,56.51
2022-12-01T06:55:40.661Z,56.82
2022-12-01T06:57:43.544Z,56.65
2022-12-01T06:59:45.485Z,56.85
2022-12-01T07:01:47.532Z,56.92
2022-12-01T07:03:50.287Z,56.63
2022-12-01T07:05:58.697Z,56.94
2022-12-01T07:08:01.246Z,56.94
2022-12-01T07:10:03.348Z,56.91
2022-12-01T07:12:05.996Z,56.97
2022-12-01T07:14:28.457Z,56.72
2022-12-01T07:16:30.732Z,56.83
2022-12-01T07:18:33.165Z,56.93
2022-12-01T07:20:34.629Z,57.01
2022-12-01T07:22:36.286Z,56.89
2022-12-01T07:24:37.849Z,56.89
2022-12-01T07:26:41.137Z,56.96
2022-12-01T07:28:43.619Z,56.98
2022-12-01T07:30:45.109Z,57.04
2022-12-01T07:32:46.764Z,56.90
2022-12-01T07:34:48.389Z,57.10
2022-12-01T07:36:49.893Z,57.06
2022-12-01T07:38:51.494Z,57.25
2022-12-01T07:40:53.141Z,57.13
2022-12-01T07:42:54.823Z,56.88
2022-12-01T07:44:56.402Z,56.80
2022-12-01T07:46:58.025Z,57.00
2022-12-01T07:49:00.408Z,57.05
2022-12-01T07:51:02.665Z,57.02
2022-12-01T07:53:04.564Z,57.16
2022-12-01T07:55:06.853Z,57.32
2022-12-01T07:57:08.548Z,57.01
2022-12-01T07:59:11.343Z,57.12
2022-12-01T08:01:15.969Z,57.09
2022-12-01T08:03:17.538Z,57.40
2022-12-01T08:05:19.478Z,57.09
2022-12-01T08:07:21.356Z,57.15
2022-12-01T08:09:24.070Z,57.38
2022-12-01T08:11:29.776Z,57.30
2022-12-01T08:13:31.787Z,57.35
2022-12-01T08:15:33.642Z,57.24
2022-12-01T08:17:35.133Z,57.42
2022-12-01T08:19:36.806Z,57.40
2022-12-01T08:21:38.552Z,57.25
2022-12-01T08:23:42.041Z,57.36
2022-12-01T08:25:43.986Z,57.22
2022-12-01T08:27:45.630Z,57.38
2022-12-01T08:29:47.428Z,57.48
2022-12-01T08:31:49.371Z,57.52
2022-12-01T08:33:52.316Z,57.55
2022-12-01T08:35:56.780Z,57.25
2022-12-01T08:37:58.354Z,57.50
2022-12-01T08:40:00.109Z,57.78
2022-12-01T08:42:02.108Z,57.50
2022-12-01T08:44:04.096Z,57.82
2022-12-01T08:46:06.901Z,57.45
2022-12-01T08:48:08.671Z,57.62
2022-12-01T08:50:11.159Z,57.91
2022-12-01T08:52:13.128Z,57.70
2022-12-01T08:54:15.090Z,57.66
2022-12-01T08:56:24.083Z,57.33
2022-12-01T08:58:26.056Z,57.31
2022-12-01T09:00:27.785Z,57.41
2022-12-01T09:02:29.677Z,57.30
2022-12-01T09:04:31.504Z,57.14
2022-12-01T09:06:37.583Z,57.50
2022-12-01T09:08:39.604Z,57.45
2022-12-01T09:10:41.390Z,57.45
2022-12-01T09:12:43.042Z,57.13
2022-12-01T09:14:49.819Z,57.59
2022-12-01T09:16:51.780Z,57.42
2022-12-01T09:18:54.812Z,56.96
2022-12-01T09:20:57.593Z,57.12
2022-12-01T09:22:59.260Z,57.25
2022-12-01T09:25:00.852Z,57.05
2022-12-01T09:27:03.472Z,57.51
2022-12-01T09:29:08.183Z,56.84
2022-12-01T09:31:15.127Z,57.29
2022-12-01T09:33:16.778Z,57.31
2022-12-01T09:35:23.058Z,57.20
2022-12-01T09:37:25.679Z,57.48
2022-12-01T09:39:28.429Z,57.46
2022-12-01T09:41:33.709Z,57.29
2022-12-01T09:43:46.542Z,57.16
2022-12-01T09:45:58.610Z,57.10
2022-12-01T09:48:06.352Z,57.57
2022-12-01T09:50:18.962Z,57.20
2022-12-01T09:52:23.160Z,57.35
2022-12-01T09:54:25.122Z,57.15
2022-12-01T09:56:29.068Z,57.42
2022-12-01T09:58:31.145Z,57.47
2022-12-01T10:00:38.030Z,57.30
2022-12-01T10:02:47.356Z,57.71
2022-12-01T10:04:52.304Z,57.56
2022-12-01T10:07:03.446Z,57.69
2022-12-01T10:09:17.305Z,57.97
2022-12-01T10:11:35.547Z,57.59
2022-12-01T10:13:37.412Z,57.45
2022-12-01T10:15:54.870Z,57.51
2022-12-01T10:18:15.224Z,57.38
2022-12-01T10:20:40.620Z,57.58
2022-12-01T10:22:53.019Z,57.64
2022-12-01T10:25:19.508Z,57.51
2022-12-01T10:27:50.804Z,57.43
2022-12-01T10:30:21.326Z,57.90
2022-12-01T10:32:33.249Z,57.65
2022-12-01T10:34:40.448Z,57.52
2022-12-01T10:36:42.145Z,57.61
2022-12-01T10:38:43.852Z,57.62
2022-12-01T10:40:46.086Z,57.66
2022-12-01T10:42:49.515Z,57.50
2022-12-01T10:44:51.848Z,57.65
2022-12-01T10:46:55.768Z,57.53
2022-12-01T10:49:08.122Z,57.40
2022-12-01T10:51:17.800Z,57.33
2022-12-01T10:53:22.568Z,57.30
2022-12-01T10:55:29.103Z,57.54
2022-12-01T10:57:31.904Z,57.31
2022-12-01T10:59:53.371Z,57.42
2022-12-01T11:01:57.719Z,57.35
2022-12-01T11:04:08.109Z,57.42
2022-12-01T11:06:11.223Z,57.32
2022-12-01T11:08:24.676Z,57.21
2022-12-01T11:10:32.403Z,57.30
2022-12-01T11:12:34.535Z,57.28
2022-12-01T11:14:54.261Z,57.42
2022-12-01T11:16:56.024Z,57.50
2022-12-01T11:19:09.038Z,57.13
2022-12-01T11:21:26.678Z,57.29
2022-12-01T11:23:29.871Z,57.33
2022-12-01T11:25:31.513Z,57.44
2022-12-01T11:27:48.345Z,57.48
2022-12-01T11:29:54.625Z,57.44
2022-12-01T11:31:58.194Z,57.54
2022-12-01T11:33:59.971Z,57.72
2022-12-01T11:36:01.761Z,57.38
2022-12-01T11:40:33.287Z,57.50
2022-12-01T11:42:37.042Z,57.63
2022-12-01T11:44:54.020Z,57.63
2022-12-01T11:47:21.625Z,57.71
2022-12-01T11:49:22.787Z,57.51
2022-12-01T11:51:32.027Z,57.30
2022-12-01T11:53:42.560Z,57.48
2022-12-01T11:55:44.266Z,57.67
2022-12-01T11:57:48.442Z,57.63
2022-12-01T11:59:50.426Z,57.57
2022-12-01T12:02:30.755Z,57.57
2022-12-01T12:04:56.638Z,56.94
2022-12-01T12:07:33.708Z,57.01
2022-12-01T12:10:32.646Z,56.63
2022-12-01T12:12:52.386Z,56.67
2022-12-01T12:15:11.565Z,56.71
2022-12-01T12:17:34.255Z,56.58
2022-12-01T12:20:07.292Z,56.21
2022-12-01T12:22:06.703Z,56.57
2022-12-01T12:24:17.267Z,55.87
2022-12-01T12:26:30.479Z,55.88
2022-12-01T12:29:07.083Z,55.82
2022-12-01T12:31:39.536Z,55.08
2022-12-01T12:34:14.124Z,55.29
2022-12-01T12:36:32.200Z,55.42
2022-12-01T12:38:52.220Z,55.06
2022-12-01T12:41:00.588Z,55.08
2022-12-01T12:43:20.174Z,55.08
2022-12-01T12:45:43.478Z,54.81
2022-12-01T12:48:01.491Z,54.87
2022-12-01T12:50:32.058Z,55.08
2022-12-01T12:52:37.133Z,55.49
2022-12-01T12:54:54.350Z,54.93
2022-12-01T12:57:06.663Z,55.16
2022-12-01T12:59:27.252Z,54.96
2022-12-01T13:01:36.178Z,54.82
2022-12-01T13:03:51.571Z,54.94
2022-12-01T13:06:05.292Z,54.16
2022-12-01T13:08:24.830Z,54.36
2022-12-01T13:10:44.963Z,54.42
2022-12-01T13:12:56.143Z,54.96
2022-12-01T13:15:20.555Z,54.89
2022-12-01T13:17:32.788Z,55.29
2022-12-01T13:19:39.178Z,55.28
2022-12-01T13:21:45.864Z,55.29
2022-12-01T13:23:49.412Z,55.33
2022-12-01T13:25:55.214Z,55.11
2022-12-01T13:28:00.384Z,55.26
2022-12-01T13:30:02.242Z,55.41
2022-12-01T13:32:06.215Z,55.28
2022-12-01T13:34:07.946Z,55.31
2022-12-01T13:36:45.022Z,55.61
2022-12-01T13:38:35.508Z,55.42
2022-12-01T13:40:37.385Z,55.36
2022-12-01T13:42:40.004Z,55.55
2022-12-01T13:44:44.747Z,55.27
2022-12-01T13:46:46.888Z,54.99
2022-12-01T13:48:48.873Z,54.97
2022-12-01T13:50:57.135Z,54.90
2022-12-01T13:53:19.158Z,54.39
2022-12-01T13:55:28.802Z,54.54
2022-12-01T13:57:35.259Z,54.71
2022-12-01T14:00:00.944Z,53.85
2022-12-01T14:02:19.845Z,54.51
2022-12-01T14:04:27.147Z,54.16
2022-12-01T14:06:46.383Z,53.73
2022-12-01T14:08:50.764Z,54.28
2022-12-01T14:11:04.454Z,53.88
2022-12-01T14:13:07.284Z,54.03
2022-12-01T14:15:24.307Z,53.76
2022-12-01T14:17:32.414Z,53.91
2022-12-01T14:19:52.245Z,53.81
2022-12-01T14:21:54.205Z,53.98
2022-12-01T14:24:05.035Z,53.84
2022-12-01T14:26:44.864Z,53.28
2022-12-01T14:29:08.754Z,53.47
2022-12-01T14:31:10.824Z,53.81
2022-12-01T14:33:40.379Z,53.58
2022-12-01T14:35:42.128Z,53.73
2022-12-01T14:37:47.738Z,53.60
2022-12-01T14:40:17.526Z,53.46
2022-12-01T14:42:57.870Z,53.69
2022-12-01T14:45:03.569Z,53.75
2022-12-01T14:47:17.601Z,53.62
2022-12-01T14:49:26.722Z,53.68
2022-12-01T14:51:34.473Z,53.57
2022-12-01T14:53:40.683Z,53.78
2022-12-01T14:55:50.681Z,53.56
2022-12-01T14:58:06.114Z,53.73
2022-12-01T15:00:14.362Z,53.73
2022-12-01T15:02:17.117Z,53.87
2022-12-01T15:04:19.817Z,54.09
2022-12-01T15:06:26.547Z,53.99
2022-12-01T15:09:10.385Z,54.02
2022-12-01T15:10:56.143Z,53.90
2022-12-01T15:12:57.978Z,53.83
2022-12-01T15:14:59.734Z,53.97
2022-12-01T15:17:05.051Z,54.15
2022-12-01T15:19:29.649Z,53.90
2022-12-01T15:21:32.063Z,54.45
2022-12-01T15:23:34.044Z,53.98
2022-12-01T15:25:37.008Z,54.02
2022-12-01T15:27:38.855Z,54.01
2022-12-01T15:29:47.276Z,54.21
2022-12-01T15:32:01.608Z,53.94
2022-12-01T15:34:06.169Z,54.28
2022-12-01T15:36:08.536Z,53.96
2022-12-01T15:38:19.228Z,54.07
2022-12-01T15:43:03.200Z,53.60
2022-12-01T15:45:22.642Z,54.30
2022-12-01T15:47:45.862Z,54.25
2022-12-01T15:49:49.082Z,54.05
2022-12-01T15:51:51.916Z,54.08
2022-12-01T15:53:59.183Z,54.37
2022-12-01T15:56:05.207Z,54.34
2022-12-01T15:58:09.568Z,54.36
2022-12-01T16:00:22.063Z,53.99
2022-12-01T16:02:29.880Z,54.45
2022-12-01T16:04:35.366Z,54.15
2022-12-01T16:06:39.269Z,54.44
2022-12-01T16:08:41.204Z,54.15
2022-12-01T16:10:45.067Z,54.33
2022-12-01T16:12:47.320Z,54.13
2022-12-01T16:15:13.617Z,54.18
2022-12-01T16:17:17.146Z,54.21
2022-12-01T16:19:18.723Z,54.25
2022-12-01T16:21:20.764Z,54.26
2022-12-01T16:23:30.484Z,54.36
2022-12-01T16:25:38.838Z,54.26
2022-12-01T16:27:41.173Z,54.17
2022-12-01T16:29:53.692Z,54.09
2022-12-01T16:32:19.361Z,54.35
2022-12-01T16:34:44.527Z,54.34
2022-12-01T16:36:45.108Z,54.56
2022-12-01T16:38:54.563Z,54.22
2022-12-01T16:41:01.180Z,54.20
2022-12-01T16:43:02.712Z,54.55
2022-12-01T16:45:05.834Z,54.26
2022-12-01T16:47:20.554Z,53.96
2022-12-01T16:49:22.862Z,54.16
2022-12-01T16:51:35.430Z,54.21
2022-12-01T16:53:49.564Z,54.18
2022-12-01T16:55:57.751Z,54.33
2022-12-01T16:57:59.392Z,54.40
2022-12-01T17:00:01.381Z,54.65
2022-12-01T17:02:03.088Z,54.53
2022-12-01T17:04:07.634Z,54.37
2022-12-01T17:06:15.965Z,54.61
2022-12-01T17:08:23.084Z,54.52
2022-12-01T17:10:25.263Z,54.28
2022-12-01T17:12:26.862Z,54.16
2022-12-01T17:14:33.532Z,54.23
2022-12-01T17:16:35.355Z,54.50
2022-12-01T17:18:39.843Z,54.39
2022-12-01T17:20:41.571Z,54.73
2022-12-01T17:22:43.486Z,54.45
2022-12-01T17:24:45.093Z,54.60
2022-12-01T17:26:46.668Z,54.52
2022-12-01T17:28:48.966Z,54.59
2022-12-01T17:30:50.656Z,54.40
2022-12-01T17:32:52.519Z,54.83
2022-12-01T17:34:54.556Z,54.46
2022-12-01T17:36:56.580Z,54.37
2022-12-01T17:38:58.923Z,54.87
2022-12-01T17:41:03.171Z,54.61
2022-12-01T17:43:07.305Z,54.51
2022-12-01T17:45:10.323Z,54.40
2022-12-01T17:47:12.656Z,54.38
2022-12-01T17:49:14.860Z,54.39
2022-12-01T17:51:16.744Z,54.59
2022-12-01T17:53:19.304Z,54.75
2022-12-01T17:55:21.222Z,54.52
2022-12-01T17:57:22.840Z,54.43
2022-12-01T17:59:24.557Z,54.50
2022-12-01T18:01:30.184Z,54.90
2022-12-01T18:03:32.997Z,54.91
2022-12-01T18:05:35.298Z,54.51
2022-12-01T18:07:39.531Z,54.44
2022-12-01T18:09:41.213Z,54.69
2022-12-01T18:11:43.183Z,54.83
2022-12-01T18:13:49.734Z,54.73
2022-12-01T18:15:51.602Z,54.91
2022-12-01T18:17:53.757Z,54.51
2022-12-01T18:19:55.495Z,54.75
2022-12-01T18:21:57.707Z,54.48
2022-12-01T18:24:03.032Z,54.65
2022-12-01T18:26:15.721Z,55.18
2022-12-01T18:28:18.431Z,54.52
2022-12-01T18:30:20.078Z,54.70
2022-12-01T18:32:21.902Z,54.84
2022-12-01T18:34:25.287Z,54.64
2022-12-01T18:36:26.782Z,55.11
2022-12-01T18:38:28.895Z,54.90
2022-12-01T18:40:36.358Z,54.72
2022-12-01T18:42:38.214Z,54.90
2022-12-01T18:44:43.010Z,54.81
2022-12-01T18:46:44.791Z,54.91
2022-12-01T18:48:49.388Z,54.72
2022-12-01T18:50:56.298Z,55.11
2022-12-01T18:53:01.065Z,54.70
2022-12-01T18:55:03.078Z,54.97
2022-12-01T18:57:04.852Z,55.00
2022-12-01T18:59:08.798Z,54.61
2022-12-01T19:01:22.400Z,54.68
2022-12-01T19:03:24.343Z,54.80
2022-12-01T19:05:26.595Z,54.94
2022-12-01T19:07:30.087Z,54.82
2022-12-01T19:09:33.083Z,54.73
2022-12-01T19:11:36.049Z,55.09
2022-12-01T19:13:38.000Z,54.87
2022-12-01T19:15:39.628Z,54.84
2022-12-01T19:17:41.367Z,55.10
2022-12-01T19:19:43.239Z,54.56
2022-12-01T19:21:45.365Z,54.86
2022-12-01T19:23:47.652Z,54.60
2022-12-01T19:25:49.535Z,54.87
2022-12-01T19:27:53.126Z,55.00
2022-12-01T19:29:58.004Z,54.93
2022-12-01T19:32:00.349Z,54.78
2022-12-01T19:34:04.076Z,54.67
2022-12-01T19:36:17.662Z,55.07
2022-12-01T19:38:19.318Z,54.70
2022-12-01T19:40:22.820Z,54.63
2022-12-01T19:42:24.498Z,54.99
2022-12-01T19:44:26.307Z,54.73
2022-12-01T19:46:28.911Z,55.00
2022-12-01T19:48:30.948Z,54.73
2022-12-01T19:50:36.641Z,54.62
2022-12-01T19:52:41.200Z,55.04
2022-12-01T19:54:44.749Z,54.72
2022-12-01T19:56:46.461Z,54.65
2022-12-01T19:58:48.209Z,54.79
2022-12-01T20:00:49.989Z,54.73
2022-12-01T20:02:52.286Z,54.95
2022-12-01T20:04:54.644Z,55.11
2022-12-01T20:06:56.922Z,54.79
2022-12-01T20:09:02.159Z,54.57
2022-12-01T20:11:05.516Z,54.57
2022-12-01T20:13:07.247Z,55.12
2022-12-01T20:15:09.437Z,54.73
2022-12-01T20:17:15.958Z,55.11
2022-12-01T20:19:17.781Z,54.68
2022-12-01T20:21:28.179Z,55.11
2022-12-01T20:23:29.936Z,54.88
2022-12-01T20:25:32.725Z,54.79
2022-12-01T20:27:35.603Z,54.93
2022-12-01T20:29:37.251Z,55.11
2022-12-01T20:31:40.601Z,54.98
2022-12-01T20:33:42.706Z,55.01
2022-12-01T20:35:44.298Z,55.01
2022-12-01T20:37:46.109Z,54.96
2022-12-01T20:39:47.839Z,54.69
2022-12-01T20:41:50.201Z,54.85
2022-12-01T20:43:51.976Z,54.83
2022-12-01T20:45:54.053Z,54.93
2022-12-01T20:47:55.717Z,55.01
2022-12-01T20:49:58.541Z,55.17
2022-12-01T20:52:00.612Z,54.79
2022-12-01T20:54:27.468Z,55.10
2022-12-01T20:56:26.863Z,54.94
2022-12-01T20:58:32.005Z,54.97
2022-12-01T21:00:39.167Z,54.71
2022-12-01T21:02:40.876Z,55.09
2022-12-01T21:04:42.483Z,55.10
2022-12-01T21:06:44.199Z,54.80
2022-12-01T21:08:47.703Z,54.79
2022-12-01T21:10:49.438Z,55.11
2022-12-01T21:13:16.321Z,54.82
2022-12-01T21:15:27.277Z,55.13
2022-12-01T21:17:36.583Z,55.10
2022-12-01T21:19:38.177Z,54.95
2022-12-01T21:21:41.457Z,55.04
2022-12-01T21:23:43.092Z,54.94
2022-12-01T21:25:45.000Z,55.41
2022-12-01T21:27:47.400Z,55.15
2022-12-01T21:29:50.113Z,55.17
2022-12-01T21:32:03.101Z,55.16
2022-12-01T21:34:21.748Z,55.08
2022-12-01T21:36:28.688Z,55.24
2022-12-01T21:38:31.995Z,55.04
2022-12-01T21:40:34.043Z,55.45
2022-12-01T21:42:36.571Z,55.42
2022-12-01T21:44:39.681Z,55.21
2022-12-01T21:46:42.547Z,55.11
2022-12-01T21:48:46.037Z,55.21
2022-12-01T21:50:52.371Z,55.07
2022-12-01T21:52:55.466Z,55.28
2022-12-01T21:55:23.362Z,55.70
2022-12-01T21:57:42.495Z,55.21
2022-12-01T21:59:48.349Z,55.42
2022-12-01T22:01:55.557Z,55.13
2022-12-01T22:04:02.418Z,55.24
2022-12-01T22:06:31.598Z,55.42
2022-12-01T22:08:40.323Z,55.79
2022-12-01T22:10:56.262Z,55.29
2022-12-01T22:12:57.942Z,55.27
2022-12-01T22:15:01.458Z,55.36
2022-12-01T22:17:06.264Z,55.61
2022-12-01T22:19:16.914Z,55.55
2022-12-01T22:21:31.663Z,55.56
2022-12-01T22:23:36.275Z,55.27
2022-12-01T22:25:37.985Z,55.64
2022-12-01T22:27:40.229Z,55.42
2022-12-01T22:29:44.969Z,55.41
2022-12-01T22:31:47.663Z,55.83
2022-12-01T22:34:03.627Z,55.53
2022-12-01T22:36:22.161Z,55.53
2022-12-01T22:38:32.889Z,55.50
2022-12-01T22:41:00.127Z,55.70
2022-12-01T22:43:21.763Z,55.54
2022-12-01T22:45:26.583Z,55.70
2022-12-01T22:47:32.731Z,55.50
2022-12-01T22:49:34.428Z,55.60
2022-12-01T22:51:51.130Z,55.63
2022-12-01T22:54:07.553Z,55.33
2022-12-01T22:56:37.292Z,55.67
2022-12-01T22:58:41.209Z,55.36
2022-12-01T23:00:42.829Z,55.53
2022-12-01T23:02:51.238Z,55.60
2022-12-01T23:04:58.710Z,55.66
2022-12-01T23:07:02.258Z,55.40
2022-12-01T23:09:03.912Z,55.52
2022-12-01T23:11:11.082Z,55.68
2022-12-01T23:13:21.116Z,55.80
2022-12-01T23:15:39.130Z,55.61
2022-12-01T23:17:41.062Z,55.71
2022-12-01T23:19:42.925Z,55.67
2022-12-01T23:21:44.767Z,55.79
2022-12-01T23:23:46.550Z,55.61
2022-12-01T23:25:50.311Z,55.77
2022-12-01T23:27:53.919Z,55.65
2022-12-01T23:29:55.959Z,55.39
2022-12-01T23:31:59.904Z,55.50
2022-12-01T23:34:01.884Z,55.47
2022-12-01T23:36:21.088Z,55.72
2022-12-01T23:38:36.318Z,55.61
2022-12-01T23:40:38.575Z,55.52
2022-12-01T23:42:40.744Z,55.74
2022-12-01T23:44:50.069Z,55.52
2022-12-01T23:46:58.539Z,55.79
2022-12-01T23:49:03.682Z,55.59
2022-12-01T23:51:23.266Z,55.81
2022-12-01T23:53:29.193Z,55.56
2022-12-01T23:55:31.397Z,55.51
2022-12-01T23:57:33.270Z,55.71
2022-12-01T23:59:37.763Z,55.58
